This is the latest recevied weather packets stored in our database for station/object AB4CZ-1. If no packets are shown the sender has not sent any weather packets the latest 10 day(s).
| Time | Temp. | Humidity | Pressure | Rain* | Wind** | Luminosity | Snow |
|---|---|---|---|---|---|---|---|
| 1778110893 | 22.22° C | 94% | 1013.8 hPa | 11.43 mm | - | - | - |
| 1778110306 | 22.22° C | 92% | 1013.5 hPa | 10.92 mm | - | - | - |
| 1778109993 | 22.78° C | 91% | 1013.7 hPa | 10.41 mm | - | - | - |
| 1778109706 | 23.33° C | 89% | 1013.8 hPa | 7.87 mm | - | - | - |
| 1778109446 | 23.89° C | 86% | 1013.5 hPa | 5.33 mm | - | - | - |
| 1778109393 | 23.89° C | 86% | 1013.5 hPa | 5.33 mm | - | - | - |
| 1778109101 | 25° C | 82% | 1013.2 hPa | 1.52 mm | - | - | - |
| 1778108499 | 25.56° C | 74% | 1012.5 hPa | 0 mm | - | - | - |
| 1778108250 | 25.56° C | 73% | 1012.2 hPa | 0 mm | - | - | - |
| 1778107593 | 25.56° C | 72% | 1012.5 hPa | 0 mm | - | - | - |
| 1778107296 | 25.56° C | 73% | 1012.6 hPa | 0 mm | - | - | - |
| 1778106993 | 25.56° C | 73% | 1013.1 hPa | 0 mm | - | - | - |
| 1778106701 | 25.56° C | 73% | 1013.1 hPa | 0 mm | - | - | - |
| 1778106393 | 25.56° C | 73% | 1013.1 hPa | 0 mm | - | - | - |
| 1778106100 | 26.11° C | 72% | 1013.2 hPa | 0 mm | - | - | - |
| 1778105793 | 26.11° C | 72% | 1013.1 hPa | 0 mm | - | - | - |
| 1778105493 | 26.67° C | 71% | 1012.9 hPa | 0 mm | - | - | - |
| 1778105244 | 26.67° C | 70% | 1012.9 hPa | 0 mm | - | - | - |
| 1778105194 | 26.67° C | 70% | 1012.9 hPa | 0 mm | - | - | - |
| 1778104639 | 26.67° C | 69% | 1013.1 hPa | 0 mm | - | - | - |
| 1778104593 | 26.67° C | 69% | 1013.1 hPa | 0 mm | - | - | - |
| 1778103993 | 27.22° C | 68% | 1012.9 hPa | 0 mm | - | - | - |
| 1778103696 | 27.22° C | 68% | 1012.9 hPa | 0 mm | - | - | - |
| 1778103393 | 27.22° C | 68% | 1012.8 hPa | 0 mm | - | - | - |
| 1778102793 | 26.67° C | 67% | 1012.8 hPa | 0 mm | - | - | - |
* Rain latest hour (hover to see other rain measurements)
** Current wind speed in m/s (hover to see current wind gust speed)